Time;durP1;ratioP1;P1;durP2;ratioP2;P2;SDS_P1;SDS_P2;PMS_P1;PMS_P2;Temp;Humidity;BMP_temperature;BMP_pressure;BME280_temperature;BME280_humidity;BME280_pressure;Samples;Min_cycle;Max_cycle;Signal;HPM_P1;HPM_P2
2021/07/21 00:00:13;;;;;;;;;;;24.10;59.70;;;;;;5128402;27;20448;-56
2021/07/21 00:02:40;;;;;;;;;;;24.10;59.70;;;;;;5121172;27;19937;-57
2021/07/21 00:05:08;;;;;;;;;;;24.10;59.60;;;;;;5133290;27;19967;-57
2021/07/21 00:07:35;;;;;;;;;;;24.00;59.60;;;;;;5129796;27;19923;-57
2021/07/21 00:10:07;;;;;;;;;;;24.10;59.70;;;;;;5117422;27;20429;-56
2021/07/21 00:15:21;;;;;;;;;;;24.10;59.80;;;;;;5129307;27;20295;-57
2021/07/21 00:17:58;;;;;;;;;;;24.10;59.80;;;;;;5118866;27;19924;-57
2021/07/21 00:20:25;;;;;;;;;;;24.00;59.60;;;;;;5134434;27;19962;-57
2021/07/21 00:22:52;;;;;;;;;;;24.00;59.70;;;;;;5132630;27;19927;-56
2021/07/21 00:25:19;;;;;;;;;;;24.00;59.70;;;;;;5131510;27;20423;-57
2021/07/21 00:27:46;;;;;;;;;;;24.00;59.80;;;;;;5131244;27;19928;-57
2021/07/21 00:30:15;;;;;;;;;;;24.00;59.80;;;;;;5133020;27;19930;-57
2021/07/21 00:32:41;;;;;;;;;;;24.00;59.80;;;;;;5134197;27;19991;-57
2021/07/21 00:35:14;;;;;;;;;;;24.00;59.80;;;;;;5131906;27;19928;-58
2021/07/21 00:37:41;;;;;;;;;;;24.00;59.80;;;;;;5132749;27;19923;-57
2021/07/21 00:40:09;;;;;;;;;;;24.00;59.80;;;;;;5132794;27;19927;-57
2021/07/21 00:42:36;;;;;;;;;;;24.00;59.80;;;;;;5131918;27;20449;-57
2021/07/21 00:45:03;;;;;;;;;;;24.00;59.70;;;;;;5132681;27;19923;-57
2021/07/21 00:47:31;;;;;;;;;;;23.90;59.70;;;;;;5133641;27;19923;-57
2021/07/21 00:49:58;;;;;;;;;;;23.90;59.70;;;;;;5132608;27;19931;-56
2021/07/21 00:52:25;;;;;;;;;;;24.00;59.80;;;;;;5133663;27;19924;-57
2021/07/21 00:54:52;;;;;;;;;;;24.00;59.80;;;;;;5131030;27;20139;-57
2021/07/21 00:57:19;;;;;;;;;;;23.90;59.80;;;;;;5120339;27;19924;-57
2021/07/21 00:59:48;;;;;;;;;;;23.90;59.70;;;;;;5116940;27;20268;-57
2021/07/21 01:02:16;;;;;;;;;;;23.90;59.80;;;;;;5124938;27;20034;-57
2021/07/21 01:04:44;;;;;;;;;;;23.90;59.80;;;;;;5133772;28;19930;-55
2021/07/21 01:07:11;;;;;;;;;;;23.90;59.90;;;;;;5130932;28;19971;-56
2021/07/21 01:09:42;;;;;;;;;;;23.90;59.80;;;;;;5126436;28;19923;-55
2021/07/21 01:12:15;;;;;;;;;;;23.90;59.80;;;;;;5123726;28;20009;-56
2021/07/21 01:15:01;;;;;;;;;;;23.90;59.80;;;;;;5132019;28;19930;-56
2021/07/21 01:17:33;;;;;;;;;;;23.90;60.60;;;;;;5132024;28;19924;-56
2021/07/21 01:20:19;;;;;;;;;;;23.90;59.80;;;;;;5131109;28;20010;-57
2021/07/21 01:22:49;;;;;;;;;;;23.90;60.00;;;;;;5132116;28;19924;-58
2021/07/21 01:25:18;;;;;;;;;;;23.80;59.90;;;;;;5131198;28;19978;-57
2021/07/21 01:27:55;;;;;;;;;;;23.80;59.90;;;;;;5131853;28;19972;-57
2021/07/21 01:30:25;;;;;;;;;;;23.90;60.00;;;;;;5130895;28;19982;-57
2021/07/21 01:32:57;;;;;;;;;;;23.90;60.00;;;;;;5115256;28;19927;-57
2021/07/21 01:35:26;;;;;;;;;;;23.90;60.00;;;;;;5129099;28;19923;-57
2021/07/21 01:37:58;;;;;;;;;;;23.90;60.00;;;;;;5122519;28;19940;-57
2021/07/21 01:40:28;;;;;;;;;;;23.90;60.00;;;;;;5133452;28;19930;-57
2021/07/21 01:42:59;;;;;;;;;;;23.80;59.90;;;;;;5131946;28;19963;-57
2021/07/21 01:45:27;;;;;;;;;;;23.90;60.00;;;;;;5131961;28;19923;-56
2021/07/21 01:47:56;;;;;;;;;;;23.90;60.00;;;;;;5127729;28;20332;-57
2021/07/21 01:50:24;;;;;;;;;;;23.80;60.00;;;;;;5120738;28;20014;-57
2021/07/21 01:52:51;;;;;;;;;;;23.80;60.00;;;;;;5128518;27;20342;-57
2021/07/21 01:55:23;;;;;;;;;;;23.90;60.10;;;;;;5121345;27;19970;-57
2021/07/21 01:57:51;;;;;;;;;;;23.80;60.00;;;;;;5136843;27;19976;-57
2021/07/21 02:00:18;;;;;;;;;;;23.80;60.00;;;;;;5133819;27;19971;-57
2021/07/21 02:02:49;;;;;;;;;;;23.80;60.00;;;;;;5120723;27;19931;-57
2021/07/21 02:05:18;;;;;;;;;;;23.80;60.00;;;;;;5134576;27;19947;-57
2021/07/21 02:07:45;;;;;;;;;;;23.80;60.00;;;;;;5136862;27;20295;-57
2021/07/21 02:10:20;;;;;;;;;;;23.80;60.00;;;;;;5136347;27;20339;-57
2021/07/21 02:12:49;;;;;;;;;;;23.80;60.10;;;;;;5135809;27;19949;-57
2021/07/21 02:15:17;;;;;;;;;;;23.80;60.10;;;;;;5134466;27;19962;-58
2021/07/21 02:17:44;;;;;;;;;;;23.80;60.10;;;;;;5136772;27;19980;-57
2021/07/21 02:20:12;;;;;;;;;;;23.80;60.80;;;;;;5135520;27;20451;-57
2021/07/21 02:22:41;;;;;;;;;;;23.80;60.10;;;;;;5135613;27;19924;-57
2021/07/21 02:25:09;;;;;;;;;;;23.80;60.10;;;;;;5135584;27;19939;-58
2021/07/21 02:27:36;;;;;;;;;;;23.80;60.10;;;;;;5136160;27;19972;-58
2021/07/21 02:30:04;;;;;;;;;;;23.80;60.10;;;;;;5133811;27;19967;-58
2021/07/21 02:32:35;;;;;;;;;;;23.80;60.20;;;;;;5136481;27;19976;-58
2021/07/21 02:35:02;;;;;;;;;;;23.80;60.20;;;;;;5135100;27;19924;-58
2021/07/21 02:37:29;;;;;;;;;;;23.80;60.20;;;;;;5131569;27;19962;-58
2021/07/21 02:39:56;;;;;;;;;;;23.80;60.10;;;;;;5136139;27;19967;-58
2021/07/21 02:42:23;;;;;;;;;;;23.80;60.10;;;;;;5124624;27;19924;-58
2021/07/21 02:44:52;;;;;;;;;;;23.80;60.50;;;;;;5118975;27;20444;-58
2021/07/21 02:47:19;;;;;;;;;;;23.80;60.10;;;;;;5126264;27;20010;-57
2021/07/21 02:49:47;;;;;;;;;;;23.80;60.20;;;;;;5126736;27;19924;-56
2021/07/21 02:52:20;;;;;;;;;;;23.80;60.10;;;;;;5125970;27;19968;-58
2021/07/21 02:54:53;;;;;;;;;;;23.80;60.10;;;;;;5135684;27;19973;-57
2021/07/21 02:57:34;;;;;;;;;;;23.80;60.20;;;;;;5136075;27;20347;-58
2021/07/21 03:00:05;;;;;;;;;;;23.70;60.10;;;;;;5126878;27;19924;-58
2021/07/21 03:02:34;;;;;;;;;;;23.70;60.10;;;;;;5123545;27;19976;-57
2021/07/21 03:05:02;;;;;;;;;;;23.80;60.20;;;;;;5135329;27;19923;-58
2021/07/21 03:07:29;;;;;;;;;;;23.70;60.20;;;;;;5134654;27;19929;-58
2021/07/21 03:09:57;;;;;;;;;;;23.70;60.20;;;;;;5135523;27;20291;-57
2021/07/21 03:12:26;;;;;;;;;;;23.70;60.10;;;;;;5135567;27;19962;-57
2021/07/21 03:14:56;;;;;;;;;;;23.70;60.10;;;;;;5133092;27;19980;-57
2021/07/21 03:17:24;;;;;;;;;;;23.70;60.10;;;;;;5133955;27;19946;-58
2021/07/21 03:19:54;;;;;;;;;;;23.70;60.10;;;;;;5134457;27;19963;-58
2021/07/21 03:22:22;;;;;;;;;;;23.70;60.20;;;;;;5132955;27;19978;-58
2021/07/21 03:24:50;;;;;;;;;;;23.70;60.20;;;;;;5135152;27;20010;-58
2021/07/21 03:27:18;;;;;;;;;;;23.70;60.20;;;;;;5135415;27;19942;-58
2021/07/21 03:29:48;;;;;;;;;;;23.70;60.30;;;;;;5135213;27;19974;-58
2021/07/21 03:32:18;;;;;;;;;;;23.70;60.30;;;;;;5133777;27;19969;-58
2021/07/21 03:34:46;;;;;;;;;;;23.60;60.20;;;;;;5135417;27;19969;-55
2021/07/21 03:37:13;;;;;;;;;;;23.60;60.20;;;;;;5134582;27;20324;-57
2021/07/21 03:39:41;;;;;;;;;;;23.60;60.10;;;;;;5134408;27;19927;-57
2021/07/21 03:42:08;;;;;;;;;;;23.60;60.20;;;;;;5118541;27;19923;-57
2021/07/21 03:44:36;;;;;;;;;;;23.60;60.30;;;;;;5133343;27;20397;-58
2021/07/21 03:47:03;;;;;;;;;;;23.60;60.20;;;;;;5132158;27;20318;-58
2021/07/21 03:49:30;;;;;;;;;;;23.60;60.10;;;;;;5132349;27;20011;-58
2021/07/21 03:51:57;;;;;;;;;;;23.60;60.10;;;;;;5133327;27;19968;-58
2021/07/21 03:54:25;;;;;;;;;;;23.60;60.10;;;;;;5131949;27;19923;-58
2021/07/21 03:56:52;;;;;;;;;;;23.60;60.00;;;;;;5133646;27;19954;-58
2021/07/21 03:59:20;;;;;;;;;;;23.60;60.00;;;;;;5133408;27;19955;-57
2021/07/21 04:01:48;;;;;;;;;;;23.70;60.00;;;;;;5133263;27;19924;-57
2021/07/21 04:04:18;;;;;;;;;;;23.60;59.90;;;;;;5132067;27;19945;-58
2021/07/21 04:06:45;;;;;;;;;;;23.70;60.00;;;;;;5134785;27;19923;-56
2021/07/21 04:09:14;;;;;;;;;;;23.70;60.00;;;;;;5115426;27;19923;-58
2021/07/21 04:11:42;;;;;;;;;;;23.70;59.90;;;;;;5133158;27;19972;-57
2021/07/21 04:14:11;;;;;;;;;;;23.70;59.90;;;;;;5134601;27;20000;-58
2021/07/21 04:16:38;;;;;;;;;;;23.70;59.80;;;;;;5130867;27;20391;-57
2021/07/21 04:19:07;;;;;;;;;;;23.70;59.80;;;;;;5133264;27;20010;-57
2021/07/21 04:21:36;;;;;;;;;;;23.70;59.70;;;;;;5133006;27;19924;-55
2021/07/21 04:24:03;;;;;;;;;;;23.70;59.70;;;;;;5132432;27;19931;-58
2021/07/21 04:26:32;;;;;;;;;;;23.70;59.70;;;;;;5131770;27;20003;-58
2021/07/21 04:28:59;;;;;;;;;;;23.70;59.60;;;;;;5134165;27;19924;-57
2021/07/21 04:31:27;;;;;;;;;;;23.70;59.60;;;;;;5134382;27;24658;-58
2021/07/21 04:33:54;;;;;;;;;;;23.70;59.50;;;;;;5133899;27;19923;-58
2021/07/21 04:36:23;;;;;;;;;;;23.70;59.50;;;;;;5105415;27;19923;-58
2021/07/21 04:38:52;;;;;;;;;;;23.80;59.60;;;;;;5098050;28;19934;-57
2021/07/21 04:41:21;;;;;;;;;;;23.80;59.60;;;;;;5114598;27;19923;-56
2021/07/21 04:43:48;;;;;;;;;;;23.80;59.50;;;;;;5132600;27;20010;-58
2021/07/21 04:46:16;;;;;;;;;;;23.80;59.40;;;;;;5134006;27;19923;-56
2021/07/21 04:48:44;;;;;;;;;;;23.80;59.30;;;;;;5132736;27;19930;-58
2021/07/21 04:51:12;;;;;;;;;;;23.90;59.30;;;;;;5134054;27;20006;-58
2021/07/21 04:53:39;;;;;;;;;;;23.90;59.20;;;;;;5132301;27;19924;-58
2021/07/21 04:56:06;;;;;;;;;;;23.90;59.20;;;;;;5132447;27;20256;-57
2021/07/21 04:58:33;;;;;;;;;;;23.90;59.00;;;;;;5133474;27;19945;-58
2021/07/21 05:01:00;;;;;;;;;;;23.90;59.00;;;;;;5132474;27;19928;-57
2021/07/21 05:03:27;;;;;;;;;;;24.00;59.00;;;;;;5132463;27;19923;-57
2021/07/21 05:05:54;;;;;;;;;;;24.00;58.90;;;;;;5131992;27;19929;-58
2021/07/21 05:08:21;;;;;;;;;;;24.00;58.80;;;;;;5130825;28;19923;-57
2021/07/21 05:10:47;;;;;;;;;;;24.00;58.70;;;;;;5132361;28;20428;-57
2021/07/21 05:13:15;;;;;;;;;;;24.10;58.80;;;;;;5133804;28;20326;-57
2021/07/21 05:15:44;;;;;;;;;;;24.10;58.70;;;;;;5127483;28;19924;-57
2021/07/21 05:18:12;;;;;;;;;;;24.10;58.70;;;;;;5120803;28;19959;-58
2021/07/21 05:20:39;;;;;;;;;;;24.10;58.50;;;;;;5133707;28;19931;-58
2021/07/21 05:23:06;;;;;;;;;;;24.20;58.60;;;;;;5130294;28;19927;-58
2021/07/21 05:25:35;;;;;;;;;;;24.20;58.50;;;;;;5116319;28;20375;-58
2021/07/21 05:28:06;;;;;;;;;;;24.20;58.50;;;;;;5119142;27;19966;-58
2021/07/21 05:30:33;;;;;;;;;;;24.30;58.50;;;;;;5118819;27;20446;-57
2021/07/21 05:33:00;;;;;;;;;;;24.30;58.40;;;;;;5118161;27;20018;-58
2021/07/21 05:35:27;;;;;;;;;;;24.30;58.30;;;;;;5133165;27;19924;-58
2021/07/21 05:37:55;;;;;;;;;;;24.40;58.50;;;;;;5118968;27;19923;-58
2021/07/21 05:40:22;;;;;;;;;;;24.40;58.30;;;;;;5136933;27;20272;-58
2021/07/21 05:42:49;;;;;;;;;;;24.40;58.20;;;;;;5135152;27;19995;-58
2021/07/21 05:45:16;;;;;;;;;;;24.40;58.30;;;;;;5135760;27;20435;-58
2021/07/21 05:47:43;;;;;;;;;;;24.40;58.20;;;;;;5117765;27;19958;-58
2021/07/21 05:50:10;;;;;;;;;;;24.40;58.10;;;;;;5135945;27;20288;-56
2021/07/21 05:52:37;;;;;;;;;;;24.50;58.10;;;;;;5134703;27;19977;-58
2021/07/21 05:55:04;;;;;;;;;;;24.50;58.10;;;;;;5135411;27;20026;-57
2021/07/21 05:57:31;;;;;;;;;;;24.50;58.00;;;;;;5135595;27;19924;-58
2021/07/21 05:59:58;;;;;;;;;;;24.50;58.10;;;;;;5136677;27;19958;-58
2021/07/21 06:02:25;;;;;;;;;;;24.50;58.10;;;;;;5135644;27;20151;-57
2021/07/21 06:04:53;;;;;;;;;;;24.50;58.00;;;;;;5134805;27;19976;-57
2021/07/21 06:07:20;;;;;;;;;;;24.60;58.00;;;;;;5116548;27;19927;-58
2021/07/21 06:09:47;;;;;;;;;;;24.60;58.00;;;;;;5135524;27;19992;-58
2021/07/21 06:12:14;;;;;;;;;;;24.60;58.00;;;;;;5135250;27;20006;-58
2021/07/21 06:14:42;;;;;;;;;;;24.60;58.00;;;;;;5131045;27;20387;-58
2021/07/21 06:17:09;;;;;;;;;;;24.60;57.90;;;;;;5117425;27;19930;-58
2021/07/21 06:19:36;;;;;;;;;;;24.60;57.90;;;;;;5119163;27;19958;-58
2021/07/21 06:22:04;;;;;;;;;;;24.70;57.90;;;;;;5119596;27;20294;-58
2021/07/21 06:24:30;;;;;;;;;;;24.70;57.80;;;;;;5134407;27;19923;-58
2021/07/21 06:26:59;;;;;;;;;;;24.70;57.70;;;;;;5116775;27;19967;-58
2021/07/21 06:29:26;;;;;;;;;;;24.70;57.70;;;;;;5116913;27;19977;-58
2021/07/21 06:31:53;;;;;;;;;;;24.70;57.60;;;;;;5134425;27;19958;-58
2021/07/21 06:34:20;;;;;;;;;;;24.70;57.60;;;;;;5133949;27;19923;-57
2021/07/21 06:36:47;;;;;;;;;;;24.70;57.60;;;;;;5119318;27;20007;-58
2021/07/21 06:39:14;;;;;;;;;;;24.80;57.60;;;;;;5134899;27;20003;-57
2021/07/21 06:41:41;;;;;;;;;;;24.80;57.60;;;;;;5133791;27;20009;-56
2021/07/21 06:44:08;;;;;;;;;;;24.80;57.60;;;;;;5136033;27;19930;-57
2021/07/21 06:46:35;;;;;;;;;;;24.80;57.70;;;;;;5135061;27;20338;-57
2021/07/21 06:49:02;;;;;;;;;;;24.80;57.60;;;;;;5135736;27;19927;-58
2021/07/21 06:51:29;;;;;;;;;;;24.80;57.70;;;;;;5134506;27;19923;-58
2021/07/21 06:53:56;;;;;;;;;;;24.80;57.80;;;;;;5135612;27;20414;-58
2021/07/21 06:56:23;;;;;;;;;;;24.80;57.80;;;;;;5134858;27;20051;-58
2021/07/21 06:58:51;;;;;;;;;;;24.80;58.00;;;;;;5135586;27;19923;-58
2021/07/21 07:01:19;;;;;;;;;;;24.80;57.90;;;;;;5126393;27;19924;-58
2021/07/21 07:03:47;;;;;;;;;;;24.80;57.90;;;;;;5125682;27;20028;-58
2021/07/21 07:06:15;;;;;;;;;;;24.80;58.00;;;;;;5135475;27;20402;-58
2021/07/21 07:08:41;;;;;;;;;;;24.90;58.00;;;;;;5133357;27;19927;-58
2021/07/21 07:11:09;;;;;;;;;;;24.90;58.10;;;;;;5135460;27;19924;-58
2021/07/21 07:13:37;;;;;;;;;;;24.90;57.90;;;;;;5133937;27;19923;-58
2021/07/21 07:16:11;;;;;;;;;;;24.90;57.80;;;;;;5134101;27;19931;-58
2021/07/21 07:18:38;;;;;;;;;;;24.90;57.90;;;;;;5134165;27;19923;-58
2021/07/21 07:21:05;;;;;;;;;;;24.90;57.90;;;;;;5133806;27;19974;-58
2021/07/21 07:23:32;;;;;;;;;;;25.00;57.90;;;;;;5132889;27;19923;-58
2021/07/21 07:26:00;;;;;;;;;;;25.00;57.90;;;;;;5134070;27;19936;-57
2021/07/21 07:28:26;;;;;;;;;;;25.00;57.80;;;;;;5133932;27;19924;-57
2021/07/21 07:30:53;;;;;;;;;;;25.00;57.70;;;;;;5132931;27;19930;-57
2021/07/21 07:33:20;;;;;;;;;;;25.00;57.50;;;;;;5133857;27;19993;-57
2021/07/21 07:35:47;;;;;;;;;;;25.00;57.60;;;;;;5133409;27;19923;-57
2021/07/21 07:38:15;;;;;;;;;;;25.00;57.60;;;;;;5132423;27;20002;-57
2021/07/21 07:40:42;;;;;;;;;;;25.00;57.20;;;;;;5133386;27;19985;-57
2021/07/21 07:43:10;;;;;;;;;;;25.00;55.70;;;;;;5132537;27;19924;-56
2021/07/21 07:45:37;;;;;;;;;;;25.10;56.80;;;;;;5114021;27;19962;-58
2021/07/21 07:48:04;;;;;;;;;;;25.10;56.40;;;;;;5133628;27;20008;-57
2021/07/21 07:50:31;;;;;;;;;;;25.10;56.50;;;;;;5134673;27;19923;-57
2021/07/21 07:52:58;;;;;;;;;;;25.10;56.00;;;;;;5133057;27;19949;-57
2021/07/21 07:55:25;;;;;;;;;;;25.10;55.80;;;;;;5134588;27;19962;-57
2021/07/21 07:57:52;;;;;;;;;;;25.10;55.60;;;;;;5126027;27;19935;-57
2021/07/21 08:00:19;;;;;;;;;;;25.10;55.10;;;;;;5124802;27;20392;-57
2021/07/21 08:02:46;;;;;;;;;;;25.20;55.60;;;;;;5134579;27;19963;-57
2021/07/21 08:05:13;;;;;;;;;;;25.20;55.00;;;;;;5127753;27;20010;-57
2021/07/21 08:07:40;;;;;;;;;;;25.20;54.60;;;;;;5120693;27;19992;-57
2021/07/21 08:10:12;;;;;;;;;;;25.20;54.80;;;;;;5133206;27;19930;-57
2021/07/21 08:12:41;;;;;;;;;;;25.20;54.70;;;;;;5132776;27;20383;-57
2021/07/21 08:15:12;;;;;;;;;;;25.20;54.20;;;;;;5132846;27;19949;-58
2021/07/21 08:17:40;;;;;;;;;;;25.30;54.10;;;;;;5133012;27;20392;-57
2021/07/21 08:20:08;;;;;;;;;;;25.30;53.90;;;;;;5131665;27;20363;-58
2021/07/21 08:22:39;;;;;;;;;;;25.30;53.70;;;;;;5132138;27;20006;-57
2021/07/21 08:25:07;;;;;;;;;;;25.30;54.00;;;;;;5131696;27;19928;-57
2021/07/21 08:27:35;;;;;;;;;;;25.30;53.90;;;;;;5116380;27;19923;-57
2021/07/21 08:30:03;;;;;;;;;;;25.30;53.80;;;;;;5131965;27;19969;-57
2021/07/21 08:32:30;;;;;;;;;;;25.30;53.50;;;;;;5132560;27;20264;-56
2021/07/21 08:34:57;;;;;;;;;;;25.30;53.10;;;;;;5114734;27;19974;-58
2021/07/21 08:37:24;;;;;;;;;;;25.30;52.20;;;;;;5133460;27;20287;-57
2021/07/21 08:39:51;;;;;;;;;;;25.30;52.90;;;;;;5131467;27;19974;-56
2021/07/21 08:42:18;;;;;;;;;;;25.30;53.10;;;;;;5133839;27;19927;-57
2021/07/21 08:44:45;;;;;;;;;;;25.30;52.70;;;;;;5132134;27;19924;-57
2021/07/21 08:47:12;;;;;;;;;;;25.30;53.00;;;;;;5100868;28;20029;-58
2021/07/21 08:49:39;;;;;;;;;;;25.30;52.20;;;;;;5128909;27;20440;-57
2021/07/21 08:52:07;;;;;;;;;;;25.30;52.70;;;;;;5103207;28;19978;-58
2021/07/21 08:54:34;;;;;;;;;;;25.30;52.60;;;;;;5115044;28;19977;-57
2021/07/21 08:57:02;;;;;;;;;;;25.40;53.10;;;;;;5125086;27;19934;-57
2021/07/21 08:59:28;;;;;;;;;;;25.30;52.40;;;;;;5123853;27;19970;-57
2021/07/21 09:01:56;;;;;;;;;;;25.40;52.30;;;;;;5123642;27;19999;-57
2021/07/21 09:04:23;;;;;;;;;;;25.40;52.50;;;;;;5133518;27;19927;-58
2021/07/21 09:06:50;;;;;;;;;;;25.40;52.70;;;;;;5132061;27;19924;-58
2021/07/21 09:09:17;;;;;;;;;;;25.40;52.60;;;;;;5131456;28;19978;-58
2021/07/21 09:11:45;;;;;;;;;;;25.40;52.10;;;;;;5133305;28;19989;-58
2021/07/21 09:14:11;;;;;;;;;;;25.40;52.20;;;;;;5133699;28;19924;-58
2021/07/21 09:16:38;;;;;;;;;;;25.40;52.20;;;;;;5133250;28;19972;-58
2021/07/21 09:19:06;;;;;;;;;;;25.40;52.10;;;;;;5132154;28;19931;-58
2021/07/21 09:21:33;;;;;;;;;;;25.40;51.80;;;;;;5132068;28;19963;-58
2021/07/21 09:24:00;;;;;;;;;;;25.40;51.80;;;;;;5132458;28;19997;-57
2021/07/21 09:26:26;;;;;;;;;;;25.50;51.80;;;;;;5132441;28;19923;-58
2021/07/21 09:28:54;;;;;;;;;;;25.50;51.30;;;;;;5132549;28;19984;-58
2021/07/21 09:31:48;;;;;;;;;;;25.50;51.30;;;;;;5133258;28;19954;-58
2021/07/21 09:34:15;;;;;;;;;;;25.50;51.50;;;;;;5110298;28;19924;-58
2021/07/21 09:36:42;;;;;;;;;;;25.50;51.80;;;;;;5119247;28;19968;-58
2021/07/21 09:39:11;;;;;;;;;;;25.50;51.40;;;;;;5113836;28;19924;-56
2021/07/21 09:41:39;;;;;;;;;;;25.50;51.70;;;;;;5132783;28;19924;-57
2021/07/21 09:44:06;;;;;;;;;;;25.50;51.60;;;;;;5115119;28;19963;-58
2021/07/21 09:46:34;;;;;;;;;;;25.50;51.40;;;;;;5116147;28;19986;-58
2021/07/21 09:49:01;;;;;;;;;;;25.50;51.30;;;;;;5129926;28;19976;-58
2021/07/21 09:51:30;;;;;;;;;;;25.60;50.90;;;;;;5113393;28;20410;-58
2021/07/21 09:54:10;;;;;;;;;;;25.50;50.70;;;;;;5119685;28;19924;-58
2021/07/21 09:56:37;;;;;;;;;;;25.60;51.00;;;;;;5129290;28;19954;-58
2021/07/21 09:59:23;;;;;;;;;;;25.60;51.20;;;;;;5132933;28;19923;-58
2021/07/21 10:01:51;;;;;;;;;;;25.60;51.30;;;;;;5118032;28;19969;-58
2021/07/21 10:04:31;;;;;;;;;;;25.60;51.00;;;;;;5129401;28;20003;-58
2021/07/21 10:07:00;;;;;;;;;;;25.60;51.20;;;;;;5130839;28;19974;-58
2021/07/21 10:09:27;;;;;;;;;;;25.60;51.00;;;;;;5132915;28;19924;-58
2021/07/21 10:11:56;;;;;;;;;;;25.60;51.10;;;;;;5131735;28;20010;-57
2021/07/21 10:14:23;;;;;;;;;;;25.60;50.90;;;;;;5134539;27;19927;-58
2021/07/21 10:16:51;;;;;;;;;;;25.60;51.20;;;;;;5135410;27;19924;-58
2021/07/21 10:19:28;;;;;;;;;;;25.60;51.10;;;;;;5135103;27;19930;-58
2021/07/21 10:22:00;;;;;;;;;;;25.60;51.00;;;;;;5135684;27;19968;-57
2021/07/21 10:24:29;;;;;;;;;;;25.60;50.30;;;;;;5118211;27;20379;-57
2021/07/21 10:26:56;;;;;;;;;;;25.60;50.70;;;;;;5135210;27;19931;-58
2021/07/21 10:29:24;;;;;;;;;;;25.60;50.40;;;;;;5133851;27;20424;-58
2021/07/21 10:31:51;;;;;;;;;;;25.60;50.50;;;;;;5136220;27;19967;-58
2021/07/21 10:34:19;;;;;;;;;;;25.60;50.20;;;;;;5136548;27;20002;-58
2021/07/21 10:36:46;;;;;;;;;;;25.60;50.10;;;;;;5135417;27;19973;-56
2021/07/21 10:39:15;;;;;;;;;;;25.60;50.40;;;;;;5130701;27;20407;-58
2021/07/21 10:41:43;;;;;;;;;;;25.60;50.40;;;;;;5123863;27;19968;-58
2021/07/21 10:44:10;;;;;;;;;;;25.60;50.40;;;;;;5131182;27;19928;-58
2021/07/21 10:46:37;;;;;;;;;;;25.60;49.80;;;;;;5119106;27;20023;-58
2021/07/21 10:49:07;;;;;;;;;;;25.60;50.30;;;;;;5119630;27;19923;-58
2021/07/21 10:54:29;;;;;;;;;;;25.70;50.80;;;;;;5135658;27;19974;-58
2021/07/21 11:00:04;;;;;;;;;;;25.70;50.30;;;;;;5133107;27;20011;-57
2021/07/21 11:02:31;;;;;;;;;;;25.70;50.00;;;;;;5133580;27;20439;-58
2021/07/21 11:04:58;;;;;;;;;;;25.70;50.50;;;;;;5134139;27;19968;-58
2021/07/21 11:07:44;;;;;;;;;;;25.70;50.50;;;;;;5135137;27;19924;-58
2021/07/21 11:10:11;;;;;;;;;;;25.70;50.50;;;;;;5134348;27;19924;-57
2021/07/21 11:12:47;;;;;;;;;;;25.70;50.30;;;;;;5115369;27;19931;-58
2021/07/21 11:15:33;;;;;;;;;;;25.70;50.30;;;;;;5135838;27;19927;-58
2021/07/21 11:18:18;;;;;;;;;;;25.70;49.40;;;;;;5135394;27;20464;-58
2021/07/21 11:20:57;;;;;;;;;;;25.70;50.30;;;;;;5135301;27;19923;-57
2021/07/21 11:23:40;;;;;;;;;;;25.70;50.10;;;;;;5135635;27;19931;-57
2021/07/21 11:26:25;;;;;;;;;;;25.70;50.20;;;;;;5134743;27;20484;-58
2021/07/21 11:28:52;;;;;;;;;;;25.70;50.30;;;;;;5120698;27;19924;-56
2021/07/21 11:31:39;;;;;;;;;;;25.70;50.30;;;;;;5130294;27;19986;-58
2021/07/21 11:34:12;;;;;;;;;;;25.70;50.30;;;;;;5132817;27;19930;-58
2021/07/21 11:36:39;;;;;;;;;;;25.80;50.10;;;;;;5119821;27;19924;-58
2021/07/21 11:39:09;;;;;;;;;;;25.80;50.30;;;;;;5129519;27;19924;-56
2021/07/21 11:41:44;;;;;;;;;;;25.80;50.20;;;;;;5135470;27;19924;-58
2021/07/21 11:44:11;;;;;;;;;;;25.70;50.20;;;;;;5134878;27;19966;-58
2021/07/21 11:46:39;;;;;;;;;;;25.80;50.20;;;;;;5133406;27;19981;-58
2021/07/21 11:49:06;;;;;;;;;;;25.80;50.50;;;;;;5132540;27;19927;-58
2021/07/21 11:51:33;;;;;;;;;;;25.80;49.80;;;;;;5134831;27;19994;-57
2021/07/21 11:54:00;;;;;;;;;;;25.80;50.20;;;;;;5132254;27;19923;-58
2021/07/21 11:56:27;;;;;;;;;;;25.80;50.10;;;;;;5133697;27;19935;-58
2021/07/21 11:59:04;;;;;;;;;;;25.80;49.40;;;;;;5133034;27;20010;-58
2021/07/21 12:01:31;;;;;;;;;;;25.80;49.70;;;;;;5132200;27;19927;-58
2021/07/21 12:03:58;;;;;;;;;;;25.80;49.80;;;;;;5134460;27;20283;-58
2021/07/21 12:06:26;;;;;;;;;;;25.80;50.20;;;;;;5132119;27;20014;-57
2021/07/21 12:08:55;;;;;;;;;;;25.80;50.10;;;;;;5132217;27;19970;-57
2021/07/21 12:11:22;;;;;;;;;;;25.80;50.10;;;;;;5132934;27;19938;-56
2021/07/21 12:14:02;;;;;;;;;;;25.80;50.10;;;;;;5133048;27;19949;-57
2021/07/21 12:16:31;;;;;;;;;;;25.80;49.90;;;;;;5132755;27;19974;-57
2021/07/21 12:18:59;;;;;;;;;;;25.80;50.00;;;;;;5134154;27;20006;-57
2021/07/21 12:21:28;;;;;;;;;;;25.90;50.20;;;;;;5132577;27;20379;-57
2021/07/21 12:23:56;;;;;;;;;;;25.80;49.80;;;;;;5117265;27;19924;-56
2021/07/21 12:26:23;;;;;;;;;;;25.90;49.90;;;;;;5132738;27;19924;-57
2021/07/21 12:28:56;;;;;;;;;;;25.90;49.90;;;;;;5132661;27;19973;-57
2021/07/21 12:31:30;;;;;;;;;;;25.90;50.70;;;;;;5114660;28;20022;-57
2021/07/21 12:34:10;;;;;;;;;;;25.80;50.00;;;;;;5116295;27;20020;-57
2021/07/21 12:36:41;;;;;;;;;;;25.90;50.00;;;;;;5113477;28;19924;-57
2021/07/21 12:39:08;;;;;;;;;;;25.90;50.10;;;;;;5114985;27;19982;-58
2021/07/21 12:41:34;;;;;;;;;;;25.90;49.80;;;;;;5132024;27;19974;-57
2021/07/21 12:44:11;;;;;;;;;;;25.90;50.00;;;;;;5134247;27;20338;-57
2021/07/21 12:46:38;;;;;;;;;;;25.90;49.70;;;;;;5132939;27;19963;-58
2021/07/21 12:49:05;;;;;;;;;;;25.90;50.20;;;;;;5132475;27;19935;-57
2021/07/21 12:51:33;;;;;;;;;;;25.90;50.20;;;;;;5133454;27;19923;-57
2021/07/21 12:54:00;;;;;;;;;;;25.90;49.90;;;;;;5133415;27;19949;-57
2021/07/21 12:56:26;;;;;;;;;;;25.90;49.50;;;;;;5133436;27;19963;-57
2021/07/21 12:59:05;;;;;;;;;;;25.90;49.70;;;;;;5132612;27;20210;-57
2021/07/21 13:01:36;;;;;;;;;;;25.90;49.50;;;;;;5133205;27;19969;-57
2021/07/21 13:04:04;;;;;;;;;;;25.90;49.50;;;;;;5118624;28;19927;-57
2021/07/21 13:06:31;;;;;;;;;;;26.00;49.60;;;;;;5129390;27;20422;-57
2021/07/21 13:08:58;;;;;;;;;;;26.00;49.20;;;;;;5132021;27;19927;-57
2021/07/21 13:11:28;;;;;;;;;;;26.00;49.40;;;;;;5133487;28;19923;-57
2021/07/21 13:13:57;;;;;;;;;;;26.00;49.20;;;;;;5132282;28;20333;-57
2021/07/21 13:16:25;;;;;;;;;;;25.90;49.30;;;;;;5133651;28;19931;-57
2021/07/21 13:19:03;;;;;;;;;;;26.00;49.20;;;;;;5132253;28;20293;-57
2021/07/21 13:21:32;;;;;;;;;;;26.00;49.50;;;;;;5133690;28;20014;-57
2021/07/21 13:24:07;;;;;;;;;;;26.00;49.40;;;;;;5132571;28;19958;-58
2021/07/21 13:26:34;;;;;;;;;;;25.90;49.20;;;;;;5131913;28;19927;-58
2021/07/21 13:29:03;;;;;;;;;;;26.00;48.40;;;;;;5133424;28;19999;-58
2021/07/21 13:31:34;;;;;;;;;;;25.90;49.30;;;;;;5133505;28;19969;-58
2021/07/21 13:34:01;;;;;;;;;;;25.90;48.70;;;;;;5124363;28;19924;-58
2021/07/21 13:36:37;;;;;;;;;;;26.00;48.60;;;;;;5114856;28;19973;-58
2021/07/21 13:39:05;;;;;;;;;;;26.00;48.60;;;;;;5116399;28;19970;-58
2021/07/21 13:41:34;;;;;;;;;;;26.00;48.70;;;;;;5120374;28;19950;-58
2021/07/21 13:44:06;;;;;;;;;;;25.90;48.70;;;;;;5126982;28;19924;-58
2021/07/21 13:46:34;;;;;;;;;;;26.00;48.50;;;;;;5121781;28;20331;-58
2021/07/21 13:49:05;;;;;;;;;;;26.00;48.20;;;;;;5134505;27;20289;-58
2021/07/21 13:51:33;;;;;;;;;;;26.00;48.70;;;;;;5137009;27;20440;-57
2021/07/21 13:54:07;;;;;;;;;;;26.00;48.20;;;;;;5134390;27;19974;-58
2021/07/21 13:56:34;;;;;;;;;;;26.00;48.60;;;;;;5135457;27;20002;-58
2021/07/21 13:59:02;;;;;;;;;;;26.00;47.70;;;;;;5136754;27;20406;-57
2021/07/21 14:01:29;;;;;;;;;;;26.00;47.10;;;;;;5135722;27;19924;-57
2021/07/21 14:03:59;;;;;;;;;;;26.00;47.40;;;;;;5134611;27;19928;-57
2021/07/21 14:06:27;;;;;;;;;;;26.00;47.50;;;;;;5137155;27;19930;-57
2021/07/21 14:08:55;;;;;;;;;;;26.00;47.60;;;;;;5135258;27;20455;-58
2021/07/21 14:11:22;;;;;;;;;;;26.00;47.80;;;;;;5136185;27;19968;-57
2021/07/21 14:13:49;;;;;;;;;;;26.00;47.80;;;;;;5135253;27;19924;-57
2021/07/21 14:16:17;;;;;;;;;;;26.00;48.10;;;;;;5135431;27;20371;-57
2021/07/21 14:18:45;;;;;;;;;;;26.00;48.20;;;;;;5135753;27;19941;-57
2021/07/21 14:21:12;;;;;;;;;;;26.00;48.20;;;;;;5135512;27;19924;-57
2021/07/21 14:23:39;;;;;;;;;;;26.00;48.10;;;;;;5135569;27;19924;-57
2021/07/21 14:26:07;;;;;;;;;;;25.90;48.10;;;;;;5134802;27;19967;-57
2021/07/21 14:28:34;;;;;;;;;;;26.00;47.90;;;;;;5136166;27;19928;-57
2021/07/21 14:31:01;;;;;;;;;;;26.00;47.80;;;;;;5122573;27;19924;-58
2021/07/21 14:33:28;;;;;;;;;;;26.00;47.80;;;;;;5129555;27;19963;-58